sensor_id;sensor_type;location;lat;lon;timestamp;P1;durP1;ratioP1;P2;durP2;ratioP2
66559;SDS011;53413;49.878;8.142;2022-07-06T00:01:29;7.97;;;4.40;;
66559;SDS011;53413;49.878;8.142;2022-07-06T00:03:55;9.77;;;4.43;;
66559;SDS011;53413;49.878;8.142;2022-07-06T00:06:20;8.13;;;4.30;;
66559;SDS011;53413;49.878;8.142;2022-07-06T00:08:53;8.33;;;4.57;;
66559;SDS011;53413;49.878;8.142;2022-07-06T00:11:18;8.00;;;4.60;;
66559;SDS011;53413;49.878;8.142;2022-07-06T00:13:44;7.77;;;4.30;;
66559;SDS011;53413;49.878;8.142;2022-07-06T00:16:09;7.75;;;4.32;;
66559;SDS011;53413;49.878;8.142;2022-07-06T00:18:35;8.23;;;4.27;;
66559;SDS011;53413;49.878;8.142;2022-07-06T00:21:00;7.80;;;3.90;;
66559;SDS011;53413;49.878;8.142;2022-07-06T00:23:25;6.87;;;4.20;;
66559;SDS011;53413;49.878;8.142;2022-07-06T00:25:51;7.37;;;4.20;;
66559;SDS011;53413;49.878;8.142;2022-07-06T00:28:16;6.30;;;3.80;;
66559;SDS011;53413;49.878;8.142;2022-07-06T00:30:42;7.30;;;4.03;;
66559;SDS011;53413;49.878;8.142;2022-07-06T00:33:07;7.27;;;3.90;;
66559;SDS011;53413;49.878;8.142;2022-07-06T00:35:33;7.33;;;4.00;;
66559;SDS011;53413;49.878;8.142;2022-07-06T00:37:58;8.38;;;4.28;;
66559;SDS011;53413;49.878;8.142;2022-07-06T00:40:24;7.00;;;4.47;;
66559;SDS011;53413;49.878;8.142;2022-07-06T00:42:49;6.75;;;4.10;;
66559;SDS011;53413;49.878;8.142;2022-07-06T00:45:16;7.73;;;4.40;;
66559;SDS011;53413;49.878;8.142;2022-07-06T00:47:42;8.43;;;4.20;;
66559;SDS011;53413;49.878;8.142;2022-07-06T00:50:09;6.27;;;4.03;;
66559;SDS011;53413;49.878;8.142;2022-07-06T00:52:48;6.57;;;3.80;;
66559;SDS011;53413;49.878;8.142;2022-07-06T00:55:19;6.05;;;3.65;;
66559;SDS011;53413;49.878;8.142;2022-07-06T00:57:49;6.55;;;3.65;;
66559;SDS011;53413;49.878;8.142;2022-07-06T01:00:16;6.95;;;3.35;;
66559;SDS011;53413;49.878;8.142;2022-07-06T01:02:43;6.07;;;3.60;;
66559;SDS011;53413;49.878;8.142;2022-07-06T01:05:09;6.50;;;3.30;;
66559;SDS011;53413;49.878;8.142;2022-07-06T01:07:36;7.47;;;3.70;;
66559;SDS011;53413;49.878;8.142;2022-07-06T01:10:03;8.95;;;3.13;;
66559;SDS011;53413;49.878;8.142;2022-07-06T01:12:30;6.90;;;3.08;;
66559;SDS011;53413;49.878;8.142;2022-07-06T01:14:56;6.10;;;3.10;;
66559;SDS011;53413;49.878;8.142;2022-07-06T01:17:22;6.70;;;3.20;;
66559;SDS011;53413;49.878;8.142;2022-07-06T01:19:48;4.90;;;3.00;;
66559;SDS011;53413;49.878;8.142;2022-07-06T01:22:14;7.37;;;2.70;;
66559;SDS011;53413;49.878;8.142;2022-07-06T01:24:39;5.93;;;3.00;;
66559;SDS011;53413;49.878;8.142;2022-07-06T01:27:05;6.37;;;3.03;;
66559;SDS011;53413;49.878;8.142;2022-07-06T01:29:31;6.25;;;3.05;;
66559;SDS011;53413;49.878;8.142;2022-07-06T01:31:57;6.05;;;2.90;;
66559;SDS011;53413;49.878;8.142;2022-07-06T01:34:23;6.03;;;3.00;;
66559;SDS011;53413;49.878;8.142;2022-07-06T01:36:48;5.33;;;2.90;;
66559;SDS011;53413;49.878;8.142;2022-07-06T01:39:14;6.20;;;2.87;;
66559;SDS011;53413;49.878;8.142;2022-07-06T01:41:39;5.80;;;2.88;;
66559;SDS011;53413;49.878;8.142;2022-07-06T01:44:05;5.90;;;2.70;;
66559;SDS011;53413;49.878;8.142;2022-07-06T01:46:31;5.45;;;2.75;;
66559;SDS011;53413;49.878;8.142;2022-07-06T01:48:57;6.40;;;2.80;;
66559;SDS011;53413;49.878;8.142;2022-07-06T01:51:23;6.60;;;2.60;;
66559;SDS011;53413;49.878;8.142;2022-07-06T01:56:25;5.85;;;2.70;;
66559;SDS011;53413;49.878;8.142;2022-07-06T01:58:51;6.87;;;3.00;;
66559;SDS011;53413;49.878;8.142;2022-07-06T02:01:17;5.07;;;2.90;;
66559;SDS011;53413;49.878;8.142;2022-07-06T02:03:44;6.30;;;2.90;;
66559;SDS011;53413;49.878;8.142;2022-07-06T02:06:10;5.57;;;2.85;;
66559;SDS011;53413;49.878;8.142;2022-07-06T02:08:40;4.82;;;2.97;;
66559;SDS011;53413;49.878;8.142;2022-07-06T02:13:42;5.70;;;2.90;;
66559;SDS011;53413;49.878;8.142;2022-07-06T02:16:07;5.07;;;2.63;;
66559;SDS011;53413;49.878;8.142;2022-07-06T02:18:33;7.03;;;2.83;;
66559;SDS011;53413;49.878;8.142;2022-07-06T02:20:59;4.90;;;2.88;;
66559;SDS011;53413;49.878;8.142;2022-07-06T02:23:24;5.30;;;2.97;;
66559;SDS011;53413;49.878;8.142;2022-07-06T02:25:51;6.97;;;3.10;;
66559;SDS011;53413;49.878;8.142;2022-07-06T02:28:16;6.80;;;3.00;;
66559;SDS011;53413;49.878;8.142;2022-07-06T02:30:42;7.25;;;3.00;;
66559;SDS011;53413;49.878;8.142;2022-07-06T02:33:07;5.37;;;2.90;;
66559;SDS011;53413;49.878;8.142;2022-07-06T02:35:33;5.23;;;2.97;;
66559;SDS011;53413;49.878;8.142;2022-07-06T02:37:58;6.47;;;3.00;;
66559;SDS011;53413;49.878;8.142;2022-07-06T02:40:24;5.47;;;3.00;;
66559;SDS011;53413;49.878;8.142;2022-07-06T02:42:49;5.68;;;2.97;;
66559;SDS011;53413;49.878;8.142;2022-07-06T02:45:14;5.57;;;2.80;;
66559;SDS011;53413;49.878;8.142;2022-07-06T02:47:40;5.03;;;3.00;;
66559;SDS011;53413;49.878;8.142;2022-07-06T02:50:05;6.50;;;2.90;;
66559;SDS011;53413;49.878;8.142;2022-07-06T02:52:31;6.38;;;3.30;;
66559;SDS011;53413;49.878;8.142;2022-07-06T02:54:57;6.07;;;3.10;;
66559;SDS011;53413;49.878;8.142;2022-07-06T02:57:22;7.07;;;3.20;;
66559;SDS011;53413;49.878;8.142;2022-07-06T02:59:47;8.30;;;3.03;;
66559;SDS011;53413;49.878;8.142;2022-07-06T03:02:15;6.17;;;2.90;;
66559;SDS011;53413;49.878;8.142;2022-07-06T03:04:41;6.25;;;2.92;;
66559;SDS011;53413;49.878;8.142;2022-07-06T03:07:06;6.07;;;3.08;;
66559;SDS011;53413;49.878;8.142;2022-07-06T03:09:32;7.13;;;3.17;;
66559;SDS011;53413;49.878;8.142;2022-07-06T03:11:57;7.40;;;3.10;;
66559;SDS011;53413;49.878;8.142;2022-07-06T03:14:23;5.80;;;3.20;;
66559;SDS011;53413;49.878;8.142;2022-07-06T03:16:50;5.97;;;3.25;;
66559;SDS011;53413;49.878;8.142;2022-07-06T03:19:15;7.93;;;3.03;;
66559;SDS011;53413;49.878;8.142;2022-07-06T03:21:41;6.33;;;3.10;;
66559;SDS011;53413;49.878;8.142;2022-07-06T03:24:06;6.20;;;3.03;;
66559;SDS011;53413;49.878;8.142;2022-07-06T03:26:32;6.85;;;3.13;;
66559;SDS011;53413;49.878;8.142;2022-07-06T03:28:57;6.60;;;3.60;;
66559;SDS011;53413;49.878;8.142;2022-07-06T03:31:22;7.97;;;3.30;;
66559;SDS011;53413;49.878;8.142;2022-07-06T03:33:48;7.43;;;3.30;;
66559;SDS011;53413;49.878;8.142;2022-07-06T03:36:13;7.10;;;3.33;;
66559;SDS011;53413;49.878;8.142;2022-07-06T03:38:38;6.87;;;3.20;;
66559;SDS011;53413;49.878;8.142;2022-07-06T03:41:04;8.10;;;3.30;;
66559;SDS011;53413;49.878;8.142;2022-07-06T03:43:29;5.88;;;3.00;;
66559;SDS011;53413;49.878;8.142;2022-07-06T03:45:55;7.47;;;2.97;;
66559;SDS011;53413;49.878;8.142;2022-07-06T03:48:21;5.97;;;2.97;;
66559;SDS011;53413;49.878;8.142;2022-07-06T03:50:46;7.60;;;3.25;;
66559;SDS011;53413;49.878;8.142;2022-07-06T03:53:11;7.23;;;3.30;;
66559;SDS011;53413;49.878;8.142;2022-07-06T03:55:37;7.57;;;3.20;;
66559;SDS011;53413;49.878;8.142;2022-07-06T03:58:02;9.90;;;3.23;;
66559;SDS011;53413;49.878;8.142;2022-07-06T04:00:28;5.70;;;3.25;;
66559;SDS011;53413;49.878;8.142;2022-07-06T04:02:53;6.93;;;3.08;;
66559;SDS011;53413;49.878;8.142;2022-07-06T04:05:18;7.70;;;3.50;;
66559;SDS011;53413;49.878;8.142;2022-07-06T04:07:46;7.07;;;3.13;;
66559;SDS011;53413;49.878;8.142;2022-07-06T04:10:13;7.80;;;3.10;;
66559;SDS011;53413;49.878;8.142;2022-07-06T04:12:39;6.07;;;2.88;;
66559;SDS011;53413;49.878;8.142;2022-07-06T04:15:06;8.05;;;3.00;;
66559;SDS011;53413;49.878;8.142;2022-07-06T04:17:32;5.57;;;2.95;;
66559;SDS011;53413;49.878;8.142;2022-07-06T04:20:16;8.90;;;2.95;;
66559;SDS011;53413;49.878;8.142;2022-07-06T04:22:41;8.87;;;3.20;;
66559;SDS011;53413;49.878;8.142;2022-07-06T04:25:07;6.47;;;2.77;;
66559;SDS011;53413;49.878;8.142;2022-07-06T04:27:33;7.78;;;2.95;;
66559;SDS011;53413;49.878;8.142;2022-07-06T04:29:58;6.30;;;2.93;;
66559;SDS011;53413;49.878;8.142;2022-07-06T04:32:24;7.80;;;2.90;;
66559;SDS011;53413;49.878;8.142;2022-07-06T04:34:49;7.47;;;2.90;;
66559;SDS011;53413;49.878;8.142;2022-07-06T04:37:15;9.88;;;3.05;;
66559;SDS011;53413;49.878;8.142;2022-07-06T04:39:40;9.63;;;2.83;;
66559;SDS011;53413;49.878;8.142;2022-07-06T04:42:05;6.20;;;2.70;;
66559;SDS011;53413;49.878;8.142;2022-07-06T04:44:31;6.83;;;2.77;;
66559;SDS011;53413;49.878;8.142;2022-07-06T04:46:56;7.63;;;3.00;;
66559;SDS011;53413;49.878;8.142;2022-07-06T04:49:22;13.00;;;3.03;;
66559;SDS011;53413;49.878;8.142;2022-07-06T04:51:47;8.85;;;2.75;;
66559;SDS011;53413;49.878;8.142;2022-07-06T04:54:12;6.87;;;2.73;;
66559;SDS011;53413;49.878;8.142;2022-07-06T04:56:38;5.60;;;2.87;;
66559;SDS011;53413;49.878;8.142;2022-07-06T04:59:03;6.57;;;2.60;;
66559;SDS011;53413;49.878;8.142;2022-07-06T05:01:29;6.33;;;2.80;;
66559;SDS011;53413;49.878;8.142;2022-07-06T05:03:54;6.18;;;2.60;;
66559;SDS011;53413;49.878;8.142;2022-07-06T05:06:19;6.53;;;2.90;;
66559;SDS011;53413;49.878;8.142;2022-07-06T05:08:45;7.80;;;2.93;;
66559;SDS011;53413;49.878;8.142;2022-07-06T05:11:11;5.25;;;2.60;;
66559;SDS011;53413;49.878;8.142;2022-07-06T05:13:36;6.83;;;2.80;;
66559;SDS011;53413;49.878;8.142;2022-07-06T05:16:02;5.83;;;2.87;;
66559;SDS011;53413;49.878;8.142;2022-07-06T05:18:27;6.47;;;3.00;;
66559;SDS011;53413;49.878;8.142;2022-07-06T05:20:53;6.17;;;2.77;;
66559;SDS011;53413;49.878;8.142;2022-07-06T05:23:18;7.03;;;3.07;;
66559;SDS011;53413;49.878;8.142;2022-07-06T05:25:44;6.85;;;2.90;;
66559;SDS011;53413;49.878;8.142;2022-07-06T05:28:09;6.97;;;3.03;;
66559;SDS011;53413;49.878;8.142;2022-07-06T05:30:34;7.07;;;2.97;;
66559;SDS011;53413;49.878;8.142;2022-07-06T05:33:00;6.00;;;2.50;;
66559;SDS011;53413;49.878;8.142;2022-07-06T05:35:25;6.67;;;2.77;;
66559;SDS011;53413;49.878;8.142;2022-07-06T05:37:50;6.37;;;2.73;;
66559;SDS011;53413;49.878;8.142;2022-07-06T05:40:16;6.63;;;2.90;;
66559;SDS011;53413;49.878;8.142;2022-07-06T05:42:41;5.63;;;2.70;;
66559;SDS011;53413;49.878;8.142;2022-07-06T05:45:07;7.60;;;2.63;;
66559;SDS011;53413;49.878;8.142;2022-07-06T05:47:32;6.60;;;3.00;;
66559;SDS011;53413;49.878;8.142;2022-07-06T05:50:16;5.45;;;2.78;;
66559;SDS011;53413;49.878;8.142;2022-07-06T05:52:43;6.13;;;2.47;;
66559;SDS011;53413;49.878;8.142;2022-07-06T05:55:10;5.18;;;2.40;;
66559;SDS011;53413;49.878;8.142;2022-07-06T05:57:37;4.72;;;2.40;;
66559;SDS011;53413;49.878;8.142;2022-07-06T06:00:04;5.30;;;2.40;;
66559;SDS011;53413;49.878;8.142;2022-07-06T06:02:37;5.85;;;2.50;;
66559;SDS011;53413;49.878;8.142;2022-07-06T06:05:06;5.38;;;2.40;;
66559;SDS011;53413;49.878;8.142;2022-07-06T06:07:34;5.40;;;2.50;;
66559;SDS011;53413;49.878;8.142;2022-07-06T06:10:03;5.50;;;2.37;;
66559;SDS011;53413;49.878;8.142;2022-07-06T06:12:30;4.82;;;2.40;;
66559;SDS011;53413;49.878;8.142;2022-07-06T06:14:56;4.35;;;2.03;;
66559;SDS011;53413;49.878;8.142;2022-07-06T06:17:22;4.70;;;2.37;;
66559;SDS011;53413;49.878;8.142;2022-07-06T06:19:47;4.73;;;2.50;;
66559;SDS011;53413;49.878;8.142;2022-07-06T06:22:13;5.10;;;2.70;;
66559;SDS011;53413;49.878;8.142;2022-07-06T06:24:38;4.80;;;2.70;;
66559;SDS011;53413;49.878;8.142;2022-07-06T06:27:04;5.33;;;2.40;;
66559;SDS011;53413;49.878;8.142;2022-07-06T06:29:29;3.90;;;2.40;;
66559;SDS011;53413;49.878;8.142;2022-07-06T06:31:54;4.87;;;2.47;;
66559;SDS011;53413;49.878;8.142;2022-07-06T06:34:20;4.77;;;2.50;;
66559;SDS011;53413;49.878;8.142;2022-07-06T06:36:45;5.53;;;2.90;;
66559;SDS011;53413;49.878;8.142;2022-07-06T06:39:11;5.73;;;2.40;;
66559;SDS011;53413;49.878;8.142;2022-07-06T06:41:36;6.10;;;2.20;;
66559;SDS011;53413;49.878;8.142;2022-07-06T06:44:01;4.30;;;2.10;;
66559;SDS011;53413;49.878;8.142;2022-07-06T06:46:27;5.33;;;2.40;;
66559;SDS011;53413;49.878;8.142;2022-07-06T06:48:52;4.47;;;2.57;;
66559;SDS011;53413;49.878;8.142;2022-07-06T06:51:17;7.30;;;2.70;;
66559;SDS011;53413;49.878;8.142;2022-07-06T06:53:43;5.03;;;2.93;;
66559;SDS011;53413;49.878;8.142;2022-07-06T06:56:08;5.22;;;2.70;;
66559;SDS011;53413;49.878;8.142;2022-07-06T06:58:34;6.03;;;2.73;;
66559;SDS011;53413;49.878;8.142;2022-07-06T07:00:59;5.47;;;2.80;;
66559;SDS011;53413;49.878;8.142;2022-07-06T07:03:25;6.43;;;2.70;;
66559;SDS011;53413;49.878;8.142;2022-07-06T07:05:50;4.40;;;2.67;;
66559;SDS011;53413;49.878;8.142;2022-07-06T07:08:15;5.53;;;3.00;;
66559;SDS011;53413;49.878;8.142;2022-07-06T07:10:41;6.00;;;3.00;;
66559;SDS011;53413;49.878;8.142;2022-07-06T07:13:06;3.93;;;2.63;;
66559;SDS011;53413;49.878;8.142;2022-07-06T07:15:32;4.97;;;2.97;;
66559;SDS011;53413;49.878;8.142;2022-07-06T07:17:57;5.50;;;3.67;;
66559;SDS011;53413;49.878;8.142;2022-07-06T07:20:23;7.20;;;3.30;;
66559;SDS011;53413;49.878;8.142;2022-07-06T07:22:48;5.90;;;3.30;;
66559;SDS011;53413;49.878;8.142;2022-07-06T07:25:14;5.95;;;3.20;;
66559;SDS011;53413;49.878;8.142;2022-07-06T07:27:39;6.27;;;3.40;;
66559;SDS011;53413;49.878;8.142;2022-07-06T07:30:05;6.63;;;3.20;;
66559;SDS011;53413;49.878;8.142;2022-07-06T07:32:31;6.35;;;3.53;;
66559;SDS011;53413;49.878;8.142;2022-07-06T07:34:57;6.70;;;3.20;;
66559;SDS011;53413;49.878;8.142;2022-07-06T07:37:22;7.20;;;3.20;;
66559;SDS011;53413;49.878;8.142;2022-07-06T07:39:47;5.43;;;3.50;;
66559;SDS011;53413;49.878;8.142;2022-07-06T07:42:13;4.67;;;3.07;;
66559;SDS011;53413;49.878;8.142;2022-07-06T07:44:38;5.43;;;3.13;;
66559;SDS011;53413;49.878;8.142;2022-07-06T07:47:04;6.23;;;3.50;;
66559;SDS011;53413;49.878;8.142;2022-07-06T07:49:30;6.50;;;3.15;;
66559;SDS011;53413;49.878;8.142;2022-07-06T07:51:55;5.23;;;3.40;;
66559;SDS011;53413;49.878;8.142;2022-07-06T07:54:20;5.20;;;3.73;;
66559;SDS011;53413;49.878;8.142;2022-07-06T07:56:46;4.90;;;3.03;;
66559;SDS011;53413;49.878;8.142;2022-07-06T07:59:11;5.07;;;3.40;;
66559;SDS011;53413;49.878;8.142;2022-07-06T08:01:37;6.73;;;3.73;;
66559;SDS011;53413;49.878;8.142;2022-07-06T08:04:02;4.43;;;3.20;;
66559;SDS011;53413;49.878;8.142;2022-07-06T08:06:28;5.07;;;3.10;;
66559;SDS011;53413;49.878;8.142;2022-07-06T08:08:54;5.63;;;3.20;;
66559;SDS011;53413;49.878;8.142;2022-07-06T08:11:19;4.87;;;3.03;;
66559;SDS011;53413;49.878;8.142;2022-07-06T08:13:45;5.60;;;3.47;;
66559;SDS011;53413;49.878;8.142;2022-07-06T08:16:10;4.60;;;3.33;;
66559;SDS011;53413;49.878;8.142;2022-07-06T08:18:36;5.20;;;3.57;;
66559;SDS011;53413;49.878;8.142;2022-07-06T08:21:02;4.40;;;3.00;;
66559;SDS011;53413;49.878;8.142;2022-07-06T08:23:28;4.60;;;3.05;;
66559;SDS011;53413;49.878;8.142;2022-07-06T08:25:54;4.35;;;3.17;;
66559;SDS011;53413;49.878;8.142;2022-07-06T08:28:19;4.40;;;2.97;;
66559;SDS011;53413;49.878;8.142;2022-07-06T08:30:45;4.63;;;2.90;;
66559;SDS011;53413;49.878;8.142;2022-07-06T08:33:10;5.13;;;3.37;;
66559;SDS011;53413;49.878;8.142;2022-07-06T08:35:35;4.63;;;2.78;;
66559;SDS011;53413;49.878;8.142;2022-07-06T08:38:01;5.53;;;3.30;;
66559;SDS011;53413;49.878;8.142;2022-07-06T08:40:29;4.23;;;3.13;;
66559;SDS011;53413;49.878;8.142;2022-07-06T08:42:58;5.93;;;3.08;;
66559;SDS011;53413;49.878;8.142;2022-07-06T08:45:24;4.72;;;3.25;;
66559;SDS011;53413;49.878;8.142;2022-07-06T08:47:50;5.60;;;3.67;;
66559;SDS011;53413;49.878;8.142;2022-07-06T08:50:19;5.80;;;3.55;;
66559;SDS011;53413;49.878;8.142;2022-07-06T08:52:45;4.60;;;3.70;;
66559;SDS011;53413;49.878;8.142;2022-07-06T08:55:12;5.20;;;3.22;;
66559;SDS011;53413;49.878;8.142;2022-07-06T08:57:38;5.35;;;2.83;;
66559;SDS011;53413;49.878;8.142;2022-07-06T09:00:07;4.17;;;2.90;;
66559;SDS011;53413;49.878;8.142;2022-07-06T09:02:33;4.30;;;3.15;;
66559;SDS011;53413;49.878;8.142;2022-07-06T09:05:00;4.75;;;3.42;;
66559;SDS011;53413;49.878;8.142;2022-07-06T09:07:28;4.53;;;3.40;;
66559;SDS011;53413;49.878;8.142;2022-07-06T09:09:54;4.38;;;3.38;;
66559;SDS011;53413;49.878;8.142;2022-07-06T09:12:20;5.10;;;3.27;;
66559;SDS011;53413;49.878;8.142;2022-07-06T09:14:45;5.53;;;3.25;;
66559;SDS011;53413;49.878;8.142;2022-07-06T09:17:11;5.80;;;3.73;;
66559;SDS011;53413;49.878;8.142;2022-07-06T09:19:37;3.92;;;3.22;;
66559;SDS011;53413;49.878;8.142;2022-07-06T09:22:03;4.90;;;3.67;;
66559;SDS011;53413;49.878;8.142;2022-07-06T09:24:29;5.70;;;3.50;;
66559;SDS011;53413;49.878;8.142;2022-07-06T09:26:57;4.07;;;3.67;;
66559;SDS011;53413;49.878;8.142;2022-07-06T09:29:29;5.40;;;4.13;;
66559;SDS011;53413;49.878;8.142;2022-07-06T09:31:59;4.13;;;3.22;;
66559;SDS011;53413;49.878;8.142;2022-07-06T09:34:39;4.30;;;3.20;;
66559;SDS011;53413;49.878;8.142;2022-07-06T09:37:08;4.68;;;2.90;;
66559;SDS011;53413;49.878;8.142;2022-07-06T09:39:34;5.65;;;3.40;;
66559;SDS011;53413;49.878;8.142;2022-07-06T09:42:00;4.05;;;3.35;;
66559;SDS011;53413;49.878;8.142;2022-07-06T09:44:33;4.30;;;3.88;;
66559;SDS011;53413;49.878;8.142;2022-07-06T09:47:02;4.83;;;4.17;;
66559;SDS011;53413;49.878;8.142;2022-07-06T09:49:30;4.25;;;3.42;;
66559;SDS011;53413;49.878;8.142;2022-07-06T09:51:57;4.78;;;3.53;;
66559;SDS011;53413;49.878;8.142;2022-07-06T09:54:25;4.75;;;3.67;;
66559;SDS011;53413;49.878;8.142;2022-07-06T09:56:52;5.47;;;3.70;;
66559;SDS011;53413;49.878;8.142;2022-07-06T09:59:20;6.13;;;3.43;;
66559;SDS011;53413;49.878;8.142;2022-07-06T10:01:48;5.32;;;3.55;;
66559;SDS011;53413;49.878;8.142;2022-07-06T10:04:16;7.97;;;3.80;;
66559;SDS011;53413;49.878;8.142;2022-07-06T10:06:45;6.57;;;4.35;;
66559;SDS011;53413;49.878;8.142;2022-07-06T10:09:11;5.13;;;3.73;;
66559;SDS011;53413;49.878;8.142;2022-07-06T10:11:38;5.28;;;3.88;;
66559;SDS011;53413;49.878;8.142;2022-07-06T10:14:06;5.03;;;3.63;;
66559;SDS011;53413;49.878;8.142;2022-07-06T10:16:33;4.47;;;3.45;;
66559;SDS011;53413;49.878;8.142;2022-07-06T10:19:01;5.03;;;3.87;;
66559;SDS011;53413;49.878;8.142;2022-07-06T10:21:28;5.03;;;3.70;;
66559;SDS011;53413;49.878;8.142;2022-07-06T10:23:55;4.93;;;3.10;;
66559;SDS011;53413;49.878;8.142;2022-07-06T10:47:16;5.95;;;3.30;;
66559;SDS011;53413;49.878;8.142;2022-07-06T11:04:07;5.18;;;2.78;;
66559;SDS011;53413;49.878;8.142;2022-07-06T11:06:37;6.38;;;2.92;;
66559;SDS011;53413;49.878;8.142;2022-07-06T11:09:10;5.25;;;2.78;;
66559;SDS011;53413;49.878;8.142;2022-07-06T11:14:05;4.77;;;2.60;;
66559;SDS011;53413;49.878;8.142;2022-07-06T11:16:33;5.03;;;2.40;;
66559;SDS011;53413;49.878;8.142;2022-07-06T11:24:01;6.32;;;2.58;;
66559;SDS011;53413;49.878;8.142;2022-07-06T11:26:28;6.32;;;2.50;;
66559;SDS011;53413;49.878;8.142;2022-07-06T11:28:55;5.13;;;2.57;;
66559;SDS011;53413;49.878;8.142;2022-07-06T11:31:23;4.60;;;2.30;;
66559;SDS011;53413;49.878;8.142;2022-07-06T11:33:48;4.47;;;2.10;;
66559;SDS011;53413;49.878;8.142;2022-07-06T11:38:44;4.00;;;2.23;;
66559;SDS011;53413;49.878;8.142;2022-07-06T11:41:10;5.45;;;2.50;;
66559;SDS011;53413;49.878;8.142;2022-07-06T11:43:39;4.80;;;2.50;;
66559;SDS011;53413;49.878;8.142;2022-07-06T11:46:22;4.47;;;2.30;;
66559;SDS011;53413;49.878;8.142;2022-07-06T11:48:56;6.60;;;2.20;;
66559;SDS011;53413;49.878;8.142;2022-07-06T11:51:23;4.67;;;2.40;;
66559;SDS011;53413;49.878;8.142;2022-07-06T11:53:51;7.43;;;2.75;;
66559;SDS011;53413;49.878;8.142;2022-07-06T11:56:18;5.00;;;2.20;;
66559;SDS011;53413;49.878;8.142;2022-07-06T11:58:46;4.88;;;2.28;;
66559;SDS011;53413;49.878;8.142;2022-07-06T12:01:14;4.50;;;1.95;;
66559;SDS011;53413;49.878;8.142;2022-07-06T12:03:40;6.47;;;2.10;;
66559;SDS011;53413;49.878;8.142;2022-07-06T12:06:06;4.20;;;2.20;;
66559;SDS011;53413;49.878;8.142;2022-07-06T12:08:45;7.05;;;2.28;;
66559;SDS011;53413;49.878;8.142;2022-07-06T12:11:31;4.20;;;2.38;;
66559;SDS011;53413;49.878;8.142;2022-07-06T12:13:59;5.40;;;2.20;;
66559;SDS011;53413;49.878;8.142;2022-07-06T12:16:38;6.05;;;2.28;;
66559;SDS011;53413;49.878;8.142;2022-07-06T12:19:04;5.22;;;2.60;;
66559;SDS011;53413;49.878;8.142;2022-07-06T12:21:31;4.32;;;2.20;;
66559;SDS011;53413;49.878;8.142;2022-07-06T12:23:57;5.07;;;2.25;;
66559;SDS011;53413;49.878;8.142;2022-07-06T12:26:23;5.93;;;2.20;;
66559;SDS011;53413;49.878;8.142;2022-07-06T12:29:04;6.22;;;2.00;;
66559;SDS011;53413;49.878;8.142;2022-07-06T12:31:59;3.90;;;1.95;;
66559;SDS011;53413;49.878;8.142;2022-07-06T12:34:25;5.80;;;2.22;;
66559;SDS011;53413;49.878;8.142;2022-07-06T12:39:19;4.67;;;1.90;;
66559;SDS011;53413;49.878;8.142;2022-07-06T12:41:47;3.85;;;1.95;;
66559;SDS011;53413;49.878;8.142;2022-07-06T12:44:13;4.23;;;1.97;;
66559;SDS011;53413;49.878;8.142;2022-07-06T12:46:42;7.57;;;1.92;;
66559;SDS011;53413;49.878;8.142;2022-07-06T12:49:14;3.37;;;1.80;;
66559;SDS011;53413;49.878;8.142;2022-07-06T12:54:15;5.87;;;2.00;;
66559;SDS011;53413;49.878;8.142;2022-07-06T12:59:29;4.22;;;1.92;;
66559;SDS011;53413;49.878;8.142;2022-07-06T13:01:56;4.97;;;2.10;;
66559;SDS011;53413;49.878;8.142;2022-07-06T13:04:26;4.00;;;1.77;;
66559;SDS011;53413;49.878;8.142;2022-07-06T13:06:53;4.30;;;1.85;;
66559;SDS011;53413;49.878;8.142;2022-07-06T13:09:19;3.33;;;1.70;;
66559;SDS011;53413;49.878;8.142;2022-07-06T13:11:46;6.13;;;2.00;;
66559;SDS011;53413;49.878;8.142;2022-07-06T13:14:13;3.83;;;1.90;;
66559;SDS011;53413;49.878;8.142;2022-07-06T13:16:39;5.87;;;2.00;;
66559;SDS011;53413;49.878;8.142;2022-07-06T13:19:05;4.47;;;1.80;;
66559;SDS011;53413;49.878;8.142;2022-07-06T13:21:30;4.87;;;1.93;;
66559;SDS011;53413;49.878;8.142;2022-07-06T13:23:55;5.37;;;2.00;;
66559;SDS011;53413;49.878;8.142;2022-07-06T13:26:21;5.13;;;2.10;;
66559;SDS011;53413;49.878;8.142;2022-07-06T13:28:46;5.00;;;2.17;;
66559;SDS011;53413;49.878;8.142;2022-07-06T13:31:12;4.10;;;2.00;;
66559;SDS011;53413;49.878;8.142;2022-07-06T13:33:37;4.30;;;2.17;;
66559;SDS011;53413;49.878;8.142;2022-07-06T13:36:02;3.93;;;2.10;;
66559;SDS011;53413;49.878;8.142;2022-07-06T13:38:28;4.50;;;2.10;;
66559;SDS011;53413;49.878;8.142;2022-07-06T13:40:54;4.30;;;2.00;;
66559;SDS011;53413;49.878;8.142;2022-07-06T13:43:19;4.43;;;1.90;;
66559;SDS011;53413;49.878;8.142;2022-07-06T13:45:45;5.17;;;2.20;;
66559;SDS011;53413;49.878;8.142;2022-07-06T13:48:12;5.18;;;2.05;;
66559;SDS011;53413;49.878;8.142;2022-07-06T13:50:37;6.33;;;2.30;;
66559;SDS011;53413;49.878;8.142;2022-07-06T13:53:03;4.15;;;2.00;;
66559;SDS011;53413;49.878;8.142;2022-07-06T13:55:29;5.37;;;2.20;;
66559;SDS011;53413;49.878;8.142;2022-07-06T13:57:55;6.57;;;2.10;;
66559;SDS011;53413;49.878;8.142;2022-07-06T14:00:21;6.35;;;2.10;;
66559;SDS011;53413;49.878;8.142;2022-07-06T14:02:46;5.70;;;1.97;;
66559;SDS011;53413;49.878;8.142;2022-07-06T14:05:12;4.60;;;2.00;;
66559;SDS011;53413;49.878;8.142;2022-07-06T14:07:37;4.65;;;1.80;;
66559;SDS011;53413;49.878;8.142;2022-07-06T14:10:03;4.43;;;1.67;;
66559;SDS011;53413;49.878;8.142;2022-07-06T14:12:28;4.70;;;1.73;;
66559;SDS011;53413;49.878;8.142;2022-07-06T14:14:54;7.53;;;1.80;;
66559;SDS011;53413;49.878;8.142;2022-07-06T14:17:19;4.53;;;1.50;;
66559;SDS011;53413;49.878;8.142;2022-07-06T14:19:45;4.73;;;1.80;;
66559;SDS011;53413;49.878;8.142;2022-07-06T14:25:32;6.22;;;2.10;;
66559;SDS011;53413;49.878;8.142;2022-07-06T14:27:58;4.75;;;2.30;;
66559;SDS011;53413;49.878;8.142;2022-07-06T14:30:24;5.70;;;2.10;;
66559;SDS011;53413;49.878;8.142;2022-07-06T14:32:50;5.75;;;1.95;;
66559;SDS011;53413;49.878;8.142;2022-07-06T14:35:15;4.10;;;1.90;;
66559;SDS011;53413;49.878;8.142;2022-07-06T14:37:41;4.20;;;1.97;;
66559;SDS011;53413;49.878;8.142;2022-07-06T14:40:07;5.37;;;2.00;;
66559;SDS011;53413;49.878;8.142;2022-07-06T14:42:33;5.50;;;2.13;;
66559;SDS011;53413;49.878;8.142;2022-07-06T14:44:58;4.90;;;2.20;;
66559;SDS011;53413;49.878;8.142;2022-07-06T14:47:23;4.70;;;2.07;;
66559;SDS011;53413;49.878;8.142;2022-07-06T14:49:49;6.70;;;1.90;;
66559;SDS011;53413;49.878;8.142;2022-07-06T14:52:15;3.85;;;2.00;;
66559;SDS011;53413;49.878;8.142;2022-07-06T14:54:41;3.90;;;2.03;;
66559;SDS011;53413;49.878;8.142;2022-07-06T14:57:06;4.00;;;1.83;;
66559;SDS011;53413;49.878;8.142;2022-07-06T14:59:33;6.30;;;2.03;;
66559;SDS011;53413;49.878;8.142;2022-07-06T15:01:59;8.17;;;2.17;;
66559;SDS011;53413;49.878;8.142;2022-07-06T15:04:24;5.53;;;1.50;;
66559;SDS011;53413;49.878;8.142;2022-07-06T15:06:50;4.17;;;1.50;;
66559;SDS011;53413;49.878;8.142;2022-07-06T15:09:17;4.97;;;1.70;;
66559;SDS011;53413;49.878;8.142;2022-07-06T15:11:44;4.20;;;1.60;;
66559;SDS011;53413;49.878;8.142;2022-07-06T15:14:13;5.93;;;1.55;;
66559;SDS011;53413;49.878;8.142;2022-07-06T15:16:41;4.90;;;1.70;;
66559;SDS011;53413;49.878;8.142;2022-07-06T15:19:09;5.05;;;1.73;;
66559;SDS011;53413;49.878;8.142;2022-07-06T15:21:34;5.25;;;1.80;;
66559;SDS011;53413;49.878;8.142;2022-07-06T15:23:59;5.77;;;1.60;;
66559;SDS011;53413;49.878;8.142;2022-07-06T15:26:25;4.80;;;1.70;;
66559;SDS011;53413;49.878;8.142;2022-07-06T15:28:50;5.00;;;1.50;;
66559;SDS011;53413;49.878;8.142;2022-07-06T15:31:16;4.00;;;2.10;;
66559;SDS011;53413;49.878;8.142;2022-07-06T15:33:41;4.83;;;2.00;;
66559;SDS011;53413;49.878;8.142;2022-07-06T15:36:06;6.05;;;2.03;;
66559;SDS011;53413;49.878;8.142;2022-07-06T15:38:32;5.37;;;2.10;;
66559;SDS011;53413;49.878;8.142;2022-07-06T15:40:59;8.63;;;2.60;;
66559;SDS011;53413;49.878;8.142;2022-07-06T15:43:27;6.95;;;2.60;;
66559;SDS011;53413;49.878;8.142;2022-07-06T15:45:55;6.97;;;2.60;;